Weather observations for the past three days for
Chickasha, Chickasha Municipal Airport
Imperial (Metric)
Date Time (cdt) Wind (mph) Vis. (mi.) Weather Sky Cond. Temperature (ºF) Relative Humidity Wind Chill (°F) Heat Index (°F) Pressure Precipitation (in)
Air Dwpt 6 hour altimeter (in) sea level (mb) 1 hr 3 hr 6 hr
Max. Min.
03 14:10 E 13 G 18 10.00 Fair CLR 96.8 69.8 42% 103 29.91 0.0
03 13:55 SE 14 G 22 10.00 Fair CLR 96.8 69.8 42% 103 29.91 0.0
03 13:35 SE 16 G 24 10.00 Fair CLR 96.8 69.8 42% 103 29.92 0.0
03 13:15 SE 14 10.00 Fair CLR 96.8 68 39% 102 29.93 0.0
03 12:55 SE 14 G 17 10.00 Fair CLR 96.8 68 39% 102 29.94 0.0
03 12:35 SE 12 10.00 Fair CLR 95 69.8 44% 101 29.94 0.0
03 12:15 SE 14 10.00 Fair CLR 93.2 69.8 47% 99 29.95 0.0
03 11:55 SE 13 G 16 10.00 Fair CLR 93.2 69.8 47% 99 29.95 0.0
03 11:35 SE 10 10.00 Fair CLR 91.4 69.8 49% 97 29.95 0.0
03 11:15 S 10 10.00 Fair CLR 89.6 69.8 52% 95 29.95 0.0
03 10:55 SE 10 10.00 Fair CLR 89.6 69.8 52% 95 29.95 0.0
03 10:35 SE 12 10.00 Fair CLR 87.8 69.8 55% 93 29.96 0.0
03 10:15 SE 9 10.00 Fair CLR 86 69.8 59% 91 29.96 0.0
03 09:55 SE 12 10.00 Fair CLR 84.2 69.8 62% 88 29.97 0.0
03 09:35 SE 13 10.00 Fair CLR 82.4 69.8 66% 86 29.97 0.0
03 09:15 SE 10 10.00 Fair CLR 80.6 69.8 70% 84 29.98 0.0
03 08:55 SE 12 10.00 Fair CLR 80.6 69.8 70% 84 29.98 0.0
03 08:35 SE 10 10.00 Fair CLR 78.8 69.8 74% 81 29.99 0.0
03 08:15 SE 8 10.00 Fair CLR 77 69.8 79% 79 29.99 0.0
03 07:55 SE 9 10.00 Fair CLR 75.2 68 78% 76 29.98 0.0
03 07:35 SE 8 10.00 Fair CLR 75.2 68 78% 76 29.98 0.0
03 07:15 SE 6 10.00 Fair CLR 73.4 66.2 78% 29.97 0.0
03 06:55 SE 7 10.00 Fair CLR 75.2 66.2 74% 77 29.97 0.0
03 06:35 SE 7 10.00 Fair CLR 75.2 66.2 74% 77 29.96 0.0
03 06:15 SE 6 10.00 Fair CLR 77 66.2 69% 79 29.96 0.0
03 05:55 SE 9 10.00 Fair CLR 77 68 74% 79 29.96 0.0
03 05:35 SE 9 10.00 Fair CLR 77 66.2 69% 79 29.96 0.0
03 05:15 SE 7 10.00 Fair CLR 77 66.2 69% 79 29.95 0.0
03 04:55 SE 7 10.00 Fair CLR 77 66.2 69% 79 29.95 0.0
03 04:35 SE 6 10.00 Fair CLR 78.8 66.2 65% 81 29.95 0.0
03 04:15 SE 6 10.00 Fair CLR 78.8 66.2 65% 81 29.95 0.0
03 03:55 SE 7 10.00 Fair CLR 80.6 68 66% 83 29.95 0.0
03 03:35 SE 10 10.00 Fair CLR 80.6 68 66% 83 29.95 0.0
03 03:15 SE 10 10.00 Fair CLR 80.6 68 66% 83 29.95 0.0
03 02:55 SE 9 10.00 Fair CLR 80.6 68 66% 83 29.95 0.0
03 02:35 SE 8 10.00 Fair CLR 80.6 68 66% 83 29.95 0.0
03 02:15 SE 8 10.00 Fair CLR 82.4 68 62% 85 29.95 0.0
03 01:55 SE 9 10.00 Fair CLR 82.4 68 62% 85 29.95 0.0
03 01:35 SE 9 10.00 Fair CLR 82.4 68 62% 85 29.95 0.0
03 01:15 SE 13 10.00 Fair CLR 84.2 66.2 55% 87 29.95 0.0
03 00:55 SE 14 G 18 10.00 Fair CLR 84.2 66.2 55% 87 29.94 0.0
03 00:35 SE 14 10.00 Fair CLR 84.2 64.4 51% 86 29.94 0.0
03 00:15 SE 13 10.00 Fair CLR 86 64.4 49% 87 29.94 0.0
02 23:55 SE 10 10.00 Fair CLR 86 64.4 49% 87 29.94 0.0
02 23:35 SE 9 10.00 Fair CLR 86 64.4 49% 87 29.94 0.0
02 23:15 SE 9 10.00 Fair CLR 86 62.6 46% 87 29.94 0.0
02 22:55 SE 9 10.00 Fair CLR 87.8 62.6 43% 88 29.94 0.0
02 22:35 SE 10 10.00 Fair CLR 87.8 62.6 43% 88 29.94 0.0
02 22:15 SE 12 10.00 Fair CLR 89.6 62.6 41% 90 29.94 0.0
02 21:55 SE 9 10.00 Fair CLR 89.6 62.6 41% 90 29.94 0.0
02 21:35 SE 10 10.00 Fair CLR 89.6 62.6 41% 90 29.93 0.0
02 21:15 SE 10 10.00 Fair CLR 91.4 62.6 38% 92 29.93 0.0
02 20:55 SE 10 10.00 Fair CLR 91.4 62.6 38% 92 29.92 0.0
02 20:35 SE 12 10.00 Fair CLR 93.2 62.6 36% 94 29.91 0.0
02 20:15 SE 10 10.00 Fair CLR 93.2 60.8 34% 93 29.9 0.0
02 19:55 SE 10 10.00 Fair CLR 95 60.8 32% 95 29.9 0.0
02 19:35 SE 13 10.00 Fair CLR 96.8 62.6 32% 98 29.9 0.0
02 19:15 SE 10 10.00 Fair CLR 98.6 62.6 31% 100 29.89 0.0
02 18:55 SE 13 10.00 Fair CLR 98.6 62.6 31% 100 29.89 0.0
02 18:35 E 12 10.00 Fair CLR 100.4 62.6 29% 102 29.89 0.0
02 18:15 SE 14 10.00 Partly Cloudy SCT085 100.4 62.6 29% 102 29.89 0.0
02 17:55 SE 14 G 17 10.00 Partly Cloudy SCT085 102.2 62.6 27% 104 29.89 0.0
02 17:35 SE 16 10.00 Partly Cloudy SCT085 104 62.6 26% 107 29.9 0.0
02 17:15 S 14 G 18 10.00 Partly Cloudy SCT085 102.2 62.6 27% 104 29.9 0.0
02 16:55 SE 14 G 22 10.00 Partly Cloudy SCT085 100.4 62.6 29% 102 29.9 0.0
02 16:35 SE 13 10.00 Fair CLR 104 62.6 26% 107 29.91 0.0
02 16:15 SE 12 G 22 10.00 Partly Cloudy SCT085 104 62.6 26% 107 29.91 0.0
02 15:55 S 6 10.00 Partly Cloudy SCT085 105.8 62.6 25% 109 29.92 0.0
02 15:35 S 8 G 18 10.00 Fair CLR 105.8 60.8 23% 108 29.93 0.0
02 15:15 SE 10 10.00 Fair CLR 104 60.8 24% 105 29.94 0.0
02 14:55 SE 13 G 18 10.00 Fair CLR 104 62.6 26% 107 29.95 0.0
02 14:35 E 8 G 17 10.00 Fair CLR 104 60.8 24% 105 29.96 0.0
02 14:15 SE 6 10.00 Fair CLR 104 62.6 26% 107 29.97 0.0
02 13:55 SE 10 10.00 Fair CLR 102.2 62.6 27% 104 29.98 0.0
02 13:35 SE 5 10.00 Fair CLR 102.2 64.4 29% 106 29.99 0.0
02 13:15 S 12 10.00 Fair CLR 100.4 64.4 31% 104 30 0.0
02 12:55 S 9 G 20 10.00 Fair CLR 100.4 64.4 31% 104 30.01 0.0
02 12:35 S 9 G 17 10.00 Fair CLR 100.4 64.4 31% 104 30.02 0.0
02 12:15 SE 7 10.00 Fair CLR 98.6 66.2 35% 103 30.02 0.0
02 11:55 S 12 10.00 Fair CLR 96.8 66.2 37% 100 30.03 0.0
02 11:35 S 13 G 16 10.00 Fair CLR 96.8 66.2 37% 100 30.04 0.0
02 11:15 S 13 10.00 Fair CLR 95 66.2 39% 98 30.04 0.0
02 10:55 S 9 10.00 Fair CLR 95 66.2 39% 98 30.04 0.0
02 10:35 S 12 10.00 Fair CLR 93.2 66.2 41% 96 30.04 0.0
02 10:15 S 14 10.00 Fair CLR 91.4 66.2 44% 94 30.04 0.0
02 09:55 S 12 10.00 Fair CLR 89.6 66.2 46% 92 30.04 0.0
02 09:35 S 15 10.00 Fair CLR 87.8 66.2 49% 90 30.05 0.0
02 09:15 S 12 10.00 Fair CLR 86 66.2 52% 88 30.05 0.0
02 08:55 S 12 10.00 Fair CLR 84.2 68 58% 87 30.05 0.0
02 08:35 S 9 10.00 Fair CLR 82.4 66.2 58% 85 30.05 0.0
02 08:15 S 7 10.00 Fair CLR 80.6 68 66% 83 30.05 0.0
02 07:55 S 5 10.00 Fair CLR 78.8 66.2 65% 81 30.04 0.0
02 07:35 S 6 10.00 Fair CLR 77 66.2 69% 79 30.04 0.0
02 07:15 S 7 10.00 Fair CLR 75.2 64.4 69% 77 30.03 0.0
02 06:55 SE 7 10.00 Fair CLR 75.2 64.4 69% 77 30.03 0.0
02 06:35 SE 6 10.00 Fair CLR 75.2 62.6 65% 77 30.02 0.0
02 06:15 SE 3 10.00 Fair CLR 75.2 62.6 65% 77 30.02 0.0
02 05:55 SE 5 10.00 Fair CLR 75.2 64.4 69% 77 30.02 0.0
02 05:35 E 5 10.00 Fair CLR 75.2 64.4 69% 77 30.02 0.0
02 05:15 SE 5 10.00 Fair CLR 77 62.6 61% 79 30.02 0.0
02 04:55 SE 6 10.00 Fair CLR 77 64.4 65% 79 30.01 0.0
02 04:35 SE 7 10.00 Fair CLR 77 62.6 61% 79 30.01 0.0
02 04:15 SE 6 10.00 Fair CLR 77 62.6 61% 79 30.01 0.0
02 03:55 SE 6 10.00 Fair CLR 78.8 62.6 58% 80 30.01 0.0
02 03:35 SE 7 10.00 Fair CLR 78.8 62.6 58% 80 30 0.0
02 03:15 SE 6 10.00 Fair CLR 78.8 62.6 58% 80 30 0.0
02 02:55 SE 5 10.00 Fair CLR 80.6 62.6 54% 82 30.01 0.0
02 02:35 SE 6 10.00 Fair CLR 80.6 62.6 54% 82 30 0.0
02 02:15 SE 6 10.00 Fair CLR 80.6 62.6 54% 82 30 0.0
02 01:55 SE 6 10.00 Fair CLR 80.6 62.6 54% 82 30 0.0
02 01:35 Calm 10.00 Fair CLR 78.8 60.8 54% 80 30 0.0
02 01:15 Calm 10.00 Fair CLR 80.6 59 48% 81 30 0.0
02 00:55 SE 6 10.00 Fair CLR 82.4 62.6 51% 83 30 0.0
02 00:35 SE 6 10.00 Fair CLR 82.4 62.6 51% 83 30 0.0
02 00:15 S 6 10.00 Fair CLR 84.2 62.6 48% 85 30 0.0
01 23:55 SE 8 10.00 Fair CLR 86 62.6 46% 87 30 0.0
01 23:35 SE 8 10.00 Fair CLR 86 62.6 46% 87 30 0.0
01 23:15 SE 7 10.00 Fair CLR 86 60.8 43% 86 30 0.0
01 22:55 SE 9 10.00 Fair CLR 86 60.8 43% 86 30 0.0
01 22:35 SE 8 10.00 Fair CLR 86 60.8 43% 86 29.99 0.0
01 22:15 SE 9 10.00 Fair CLR 87.8 60.8 40% 88 29.99 0.0
01 21:55 SE 7 10.00 Fair CLR 87.8 60.8 40% 88 29.98 0.0
01 21:35 SE 7 10.00 Fair CLR 89.6 60.8 38% 90 29.97 0.0
01 21:15 SE 8 10.00 Partly Cloudy SCT095 91.4 60.8 36% 91 29.96 0.0
01 20:55 S 9 10.00 Partly Cloudy SCT095 91.4 60.8 36% 91 29.95 0.0
01 20:35 S 9 10.00 Partly Cloudy SCT095 91.4 60.8 36% 91 29.95 0.0
01 20:15 SE 10 10.00 Partly Cloudy SCT100 93.2 60.8 34% 93 29.94 0.0
01 19:55 SE 9 10.00 Partly Cloudy SCT110 95 60.8 32% 95 29.94 0.0
01 19:35 SE 10 10.00 Partly Cloudy SCT110 96.8 60.8 30% 97 29.94 0.0
01 19:15 SE 10 10.00 Fair CLR 98.6 59 27% 98 29.94 0.0
01 18:55 SE 10 10.00 Partly Cloudy SCT100 100.4 59 25% 100 29.94 0.0
01 18:35 S 8 10.00 Partly Cloudy SCT100 102.2 57.2 23% 102 29.94 0.0
01 18:15 S 10 10.00 Fair CLR 102.2 57.2 23% 102 29.95 0.0
01 17:55 S 12 10.00 Fair CLR 102.2 57.2 23% 102 29.95 0.0
01 17:35 S 9 10.00 Partly Cloudy SCT110 104 55.4 20% 103 29.95 0.0
01 17:15 SW 9 10.00 Partly Cloudy SCT110 104 55.4 20% 103 29.95 0.0
01 16:55 S 12 G 16 10.00 Mostly Cloudy BKN100 104 55.4 20% 103 29.95 0.0
01 16:35 SW 8 10.00 Partly Cloudy SCT100 102.2 55.4 21% 101 29.95 0.0
01 16:15 S 13 G 17 10.00 Partly Cloudy SCT110 104 55.4 20% 103 29.96 0.0
01 15:55 S 10 G 16 10.00 Partly Cloudy SCT100 102.2 57.2 23% 102 29.97 0.0
01 15:35 S 16 G 22 10.00 Mostly Cloudy BKN100 102.2 57.2 23% 102 29.98 0.0
01 15:15 S 13 10.00 Partly Cloudy SCT100 104 57.2 21% 104 29.99 0.0
01 14:55 S 13 G 20 10.00 Fair CLR 102.2 57.2 23% 102 30 0.0
01 14:35 S 12 G 16 10.00 Fair CLR 102.2 57.2 23% 102 30.01 0.0
01 14:15 SW 6 10.00 Partly Cloudy SCT090 102.2 57.2 23% 102 30.01 0.0
01 13:55 S 15 G 20 10.00 Mostly Cloudy BKN090 102.2 57.2 23% 102 30.02 0.0
01 13:35 S 15 10.00 Partly Cloudy SCT090 102.2 57.2 23% 102 30.03 0.0
01 13:15 S 10 G 20 10.00 Partly Cloudy SCT090 102.2 57.2 23% 102 30.03 0.0
01 12:55 SE 14 G 20 10.00 Partly Cloudy SCT090 102.2 59 24% 102 30.04 0.0
01 12:35 S 12 G 16 10.00 Fair CLR 100.4 59 25% 100 30.05 0.0
01 12:15 S 9 10.00 Fair CLR 98.6 59 27% 98 30.05 0.0
01 11:55 SE 12 G 20 10.00 Fair CLR 100.4 59 25% 100 30.06 0.0
01 11:35 SW 14 G 17 10.00 Fair CLR 98.6 60.8 29% 99 30.06 0.0
01 11:15 SW 12 10.00 Fair CLR 98.6 59 27% 98 30.06 0.0
01 10:55 SW 13 10.00 Fair CLR 96.8 60.8 30% 97 30.06 0.0
01 10:35 SW 8 10.00 Fair CLR 95 62.6 34% 96 30.07 0.0
01 10:15 S 10 10.00 Fair CLR 93.2 62.6 36% 94 30.07 0.0
01 09:55 S 3 10.00 Fair CLR 91.4 62.6 38% 92 30.07 0.0
01 09:35 S 5 10.00 Fair CLR 87.8 62.6 43% 88 30.07 0.0
01 09:15 Calm 10.00 Fair CLR 84.2 62.6 48% 85 30.08 0.0
01 08:55 Calm 10.00 Fair CLR 80.6 62.6 54% 82 30.08 0.0
01 08:35 Calm 7.00 Fair CLR 78.8 62.6 58% 80 30.07 0.0
01 08:15 Calm 7.00 Fair with Haze CLR 73.4 62.6 69% 30.07 0.0
01 07:55 Calm 10.00 Fair CLR 69.8 59 69% 30.07 0.0
01 07:35 Calm 10.00 Fair CLR 68 57.2 69% 30.06 0.0
01 07:15 Calm 10.00 Partly Cloudy SCT100 68 59 73% 30.05 0.0
01 06:55 Calm 10.00 Partly Cloudy SCT100 69.8 57.2 64% 30.05 0.0
01 06:35 Calm 10.00 Partly Cloudy SCT100 71.6 59 65% 30.05 0.0
01 06:15 Calm 10.00 Partly Cloudy SCT100 71.6 57.2 61% 30.04 0.0
01 05:55 Calm 10.00 Partly Cloudy SCT100 71.6 57.2 61% 30.04 0.0
01 05:35 SE 5 10.00 Partly Cloudy SCT100 69.8 55.4 60% 30.04 0.0
01 05:15 Calm 10.00 Partly Cloudy SCT100 69.8 57.2 64% 30.04 0.0
01 04:55 SE 3 10.00 Fair CLR 69.8 55.4 60% 30.04 0.0
01 04:35 E 3 10.00 Fair CLR 69.8 57.2 64% 30.03 0.0
01 04:15 Calm 10.00 Fair CLR 69.8 55.4 60% 30.03 0.0
01 03:55 E 3 10.00 Fair CLR 71.6 55.4 57% 30.03 0.0
01 03:35 Calm 10.00 Fair CLR 71.6 57.2 61% 30.02 0.0
01 03:15 Calm 10.00 Fair CLR 71.6 55.4 57% 30.03 0.0
01 02:55 NE 5 10.00 Fair CLR 73.4 53.6 50% 30.02 0.0
01 02:35 Calm 10.00 Fair CLR 73.4 55.4 53% 30.02 0.0
01 02:15 E 3 10.00 Fair CLR 73.4 57.2 57% 30.02 0.0
01 02:00 Calm 10.00 Fair CLR 77 57.2 51% 79 30.03 0.0
01 01:35 SE 5 10.00 Fair CLR 77 55.4 47% 79 30.02 0.0
01 01:15 SE 5 10.00 Fair CLR 77 57.2 51% 79 30.02 0.0
01 00:55 SE 5 10.00 Fair CLR 78.8 55.4 45% 79 30.02 0.0
01 00:35 SE 3 10.00 Fair CLR 78.8 55.4 45% 79 30.02 0.0
01 00:15 SE 6 10.00 Fair CLR 78.8 55.4 45% 79 30.02 0.0
31 23:55 SE 6 10.00 Fair CLR 80.6 57.2 45% 81 30.01 0.0
31 23:35 SE 5 10.00 Fair CLR 80.6 55.4 42% 81 30.01 0.0
31 23:15 SE 6 10.00 Fair CLR 82.4 55.4 40% 82 30.01 0.0
31 22:55 SE 7 10.00 Fair CLR 82.4 57.2 42% 82 30.01 0.0
31 22:35 SE 6 10.00 Fair CLR 84.2 55.4 37% 83 30.01 0.0
31 22:15 SE 9 10.00 Fair CLR 86 57.2 38% 85 30 0.0
31 21:55 SE 7 10.00 Fair CLR 86 57.2 38% 85 29.99 0.0
31 21:35 SE 8 10.00 Fair CLR 87.8 55.4 33% 86 29.99 0.0
31 21:15 SE 7 10.00 Fair CLR 89.6 55.4 31% 88 29.98 0.0
31 20:55 SE 9 10.00 Fair CLR 89.6 55.4 31% 88 29.97 0.0
31 20:35 SE 9 10.00 Fair CLR 91.4 53.6 28% 89 29.96 0.0
31 20:15 SE 10 10.00 Fair CLR 93.2 51.8 24% 90 29.95 0.0
31 19:55 S 10 10.00 Fair CLR 95 51.8 23% 92 29.95 0.0
31 19:35 S 10 10.00 Fair CLR 96.8 51.8 22% 94 29.95 0.0
31 19:15 S 13 10.00 Fair CLR 98.6 51.8 21% 96 29.95 0.0
31 18:35 S 12 10.00 Fair CLR 100.4 55.4 22% 99 29.95 0.0
31 18:15 S 8 10.00 Fair CLR 100.4 55.4 22% 99 29.95 0.0
31 17:55 S 8 G 18 10.00 Fair CLR 102.2 55.4 21% 101 29.95 0.0
31 17:35 S 10 G 20 10.00 Fair CLR 100.4 57.2 24% 100 29.95 0.0
31 17:15 S 14 G 18 10.00 Fair CLR 102.2 55.4 21% 101 29.95 0.0
31 16:55 S 13 G 20 10.00 Fair CLR 104 57.2 21% 104 29.95 0.0
31 16:35 S 9 10.00 Partly Cloudy SCT100 104 57.2 21% 104 29.96 0.0
31 16:15 S 12 G 16 10.00 Partly Cloudy SCT090 104 57.2 21% 104 29.96 0.0
31 15:55 SE 14 10.00 Mostly Cloudy BKN090 104 57.2 21% 104 29.97 0.0
Date Time (cdt) Wind (mph) Vis. (mi.) Weather Sky Cond. Air Dwpt Max. Min. Relative Humidity Wind Chill (°F) Heat Index (°F) altimeter (in) sea level (mb) 1 hr 3 hr 6 hr
6 hour
Temperature (ºF) Pressure Precipitation (in)